Have a Safe July 4th! 

Flight Track Log - Related Links

Times and Time Zones

All times are in EDT time to prevent confusion due to time zone crossing. See the SWA1086 flight status page for this flight to view local times or setup timezone preferences in your user account.

Time Position Orientation Groundspeed Altitude Reporting Facility
EDT Latitude Longitude Course Direction KTS MPH feet Rate Location/Type
Tue 11:05:22 AM 35.4081 -97.6225 15° North 144 166 2,100  Level Fort Worth Center
Tue 11:06:35 AM 35.4603 -97.6047 15° North 199 229 4,600 2,424 Climbing Fort Worth Center
Tue 11:08:45 AM 35.6289 -97.5964 North 286 329 10,300 2,764 Climbing Kansas City Center
Tue 11:09:46 AM 35.7303 -97.5636 15° North 365 420 13,400 3,148 Climbing Kansas City Center
Tue 11:10:47 AM 35.8261 -97.5114 24° Northeast 373 429 16,700 2,976 Climbing Kansas City Center
Tue 11:11:49 AM 35.9244 -97.4583 24° Northeast 379 436 19,500 2,496 Climbing Kansas City Center
Tue 11:12:52 AM 36.0261 -97.4036 24° Northeast 392 451 21,900 2,371 Climbing Kansas City Center
Tue 11:13:53 AM 36.1325 -97.3442 24° Northeast 405 466 24,400 2,390 Climbing Kansas City Center
Tue 11:14:55 AM 36.2389 -97.2864 24° Northeast 415 478 26,800 2,081 Climbing Kansas City Center
Tue 11:15:57 AM 36.3717 -97.2156 23° Northeast 430 495 28,700 1,820 Climbing Kansas City Center
Tue 11:16:57 AM 36.4858 -97.1522 24° Northeast 443 510 30,500 1,140 Climbing Kansas City Center
Tue 11:17:58 AM 36.6025 -97.0881 24° Northeast 454 522 31,000 240 Climbing Kansas City Center
Tue 11:19:02 AM 36.7244 -97.0214 24° Northeast 461 531 31,000  Level Kansas City Center
Tue 11:20:02 AM 36.8422 -96.9575 23° Northeast 460 529 31,000  Level Kansas City Center
Tue 11:21:04 AM 36.9564 -96.8933 24° Northeast 460 529 31,000  Level Kansas City Center
Tue 11:22:04 AM 37.0753 -96.8278 24° Northeast 466 536 31,000  Level Kansas City Center
Tue 11:23:09 AM 37.1933 -96.7617 24° Northeast 466 536 31,000  Level Kansas City Center
Tue 11:24:09 AM 37.3342 -96.6831 24° Northeast 465 535 31,000  Level Kansas City Center
Tue 11:26:11 AM 37.5708 -96.5494 24° Northeast 467 537 31,000 -161 Level Kansas City Center
Tue 11:27:15 AM 37.6900 -96.4828 24° Northeast 469 540 30,500 -720 Descending Kansas City Center
Tue 11:28:16 AM 37.8081 -96.4158 24° Northeast 468 539 29,500 -992 Descending Kansas City Center
Tue 11:29:16 AM 37.9244 -96.3500 24° Northeast 460 529 28,500 -968 Descending Kansas City Center
Tue 11:30:20 AM 38.0375 -96.2842 25° Northeast 451 519 27,500 -1,056 Descending Kansas City Center
Tue 11:31:21 AM 38.1728 -96.2072 24° Northeast 445 512 26,300 -1,082 Descending Kansas City Center
Tue 11:32:22 AM 38.2808 -96.1419 25° Northeast 437 503 25,300 -1,161 Descending Kansas City Center
Tue 11:33:25 AM 38.3669 -96.0369 44° Northeast 445 512 23,900 -1,839 Descending Kansas City Center
Tue 11:34:26 AM 38.4567 -95.9092 48° Northeast 436 502 21,500 -2,146 Descending Kansas City Center
Tue 11:35:28 AM 38.5333 -95.8019 48° Northeast 429 494 19,500 -2,000 Descending Kansas City Center
Tue 11:36:29 AM 38.6203 -95.6822 47° Northeast 413 475 17,400 -2,064 Descending Kansas City Center
Tue 11:37:33 AM 38.6944 -95.5775 48° Northeast 415 478 15,200 -2,016 Descending Kansas City Center
Tue 11:38:34 AM 38.7756 -95.4619 48° Northeast 388 447 13,200 -2,098 Descending Kansas City Center
Tue 11:39:36 AM 38.8389 -95.3742 47° Northeast 353 406 10,900 -1,584 Descending Kansas City Center
Tue 11:40:39 AM 38.8978 -95.2917 47° Northeast 329 379 9,900 -1,220 Descending Kansas City Center
Tue 11:41:39 AM 38.9431 -95.1992 58° Northeast 277 319 8,400 -1,339 Descending Kansas City Center
Tue 11:42:40 AM 38.9764 -95.1192 62° Northeast 268 308 7,200 -1,065 Descending Kansas City Center
Tue 11:43:43 AM 39.0100 -95.0289 64° Northeast 251 289 6,200 -581 Descending Kansas City Center
Tue 11:44:44 AM 39.0356 -94.9606 64° Northeast 224 258 6,000 -393 Descending Kansas City Center
Tue 11:45:45 AM 39.0653 -94.8806 64° Northeast 223 257 5,400 -672 Descending Kansas City Center
Tue 11:46:49 AM 39.0956 -94.8222 56° Northeast 199 229 4,600 -571 Descending Kansas City Center
Tue 11:47:51 AM 39.1344 -94.7781 41° Northeast 167 192 4,200 -488 Descending Kansas City Center
Tue 11:48:52 AM 39.1764 -94.7636 15° North 162 186 3,600 -738 Descending Kansas City Center
Tue 11:49:53 AM 39.2189 -94.7517 12° North 143 165 2,700 -774 Descending Kansas City Center
Tue 11:50:56 AM 39.2503 -94.7419 13° North 119 137 2,000 -677 Descending Kansas City Center
Tue 11:51:57 AM 39.2836 -94.7322 13° North 111 128 1,300 -492 Descending Kansas City Center
Tue 11:52:58 AM 39.3081 -94.7239 15° North 110 127 1,000 -295 Descending Kansas City Center
Tue 11:54:00 AM 39.2976 -94.7139 67° East  Level Estimated

Login

Don't have an account? Register now (free) for customized features, flight alerts, and more!